Aérodrome :
LOGIN :

S'inscrire | Disclaimer

   EN    FR    IT 

 










Légende :    VFR   VFR Marginal   IFR   IFR Intensif   IFR Très Intensif
Visi : 
Plafond : 
>= 8 km
>= 3000ft
5 à 8 km
1000 à 3000 ft
1500m à 5 km
500 à 1000 ft
800 à 1500m
200 à 500 ft
< 800m
< 200 ft
Symboles :   Orages  Brouillard  Fortes neiges  Fortes précipitations  Vent > 20 kt
SIGMETs :   Divers  Orages  Givrage  Turbulence  Onde Orograph.  Cendres Volcan.







- Altitude de l'aérodrome : 1411 ft
- Code IATA : ZHI


LSZG - Grenchen

DERNIER METAR :
  • 181220Z 09010KT 9999 FEW035 02/M03 Q1017 NOSIG

METARs EXPIRÉS :
  • 181150Z 08009KT 9999 FEW032 02/M03 Q1018 NOSIG
  • 181120Z 09009KT 9999 FEW032 01/M03 Q1018 NOSIG
  • 181050Z 07009KT 9999 FEW032 01/M03 Q1018 NOSIG
  • 181020Z 05008KT 9999 FEW030 00/M03 Q1019 NOSIG
  • 180950Z 05008KT CAVOK M00/M03 Q1018 NOSIG

TAF TAF LSZG
Valide du 18 à 12h jusqu'au 18 à 21h UTC


181125Z 1812/1821 07008KT CAVOK
TEMPO 1812/1816 9999 FEW035
ATIS : +41 32 396 96 33
Pas de NOTAMs connus pour ce terrain.



MET'MAP, la Météo Aéronautique d'un coup d'oeil ! - Copyright ORBIFLY Décembre 2007 - Disclaimer

ORBIFLY MET'MAP TEAM :

Programmation & Développement : Alexandra Zaïnal
Conception & Développement : Baudouin d'Aumeries
Co-Programmation & Développement : Marc-Olivier Méhu
Soutien technique & logistique : Manuel Goepfert

Contact : metmap@orbifly.com




SOURCES & CREDITS :

   NOAA